Time;durP1;ratioP1;P1;durP2;ratioP2;P2;SDS_P1;SDS_P2;PMS_P1;PMS_P2;Temp;Humidity;BMP_temperature;BMP_pressure;BME280_temperature;BME280_humidity;BME280_pressure;Samples;Min_cycle;Max_cycle;Signal;HPM_P1;HPM_P2
2023/09/27 00:00:30;;;;;;;1.38;1.15;;;15.60;99.90;;;;;;7393114;19;20149;-82
2023/09/27 00:02:57;;;;;;;1.73;1.42;;;15.70;99.90;;;;;;7394166;19;20148;-84
2023/09/27 00:05:24;;;;;;;1.23;1.13;;;15.80;99.90;;;;;;7391790;19;20182;-85
2023/09/27 00:07:51;;;;;;;1.23;1.02;;;15.90;99.90;;;;;;7393782;19;20193;-86
2023/09/27 00:10:17;;;;;;;1.20;1.10;;;15.90;99.90;;;;;;7391228;19;20471;-86
2023/09/27 00:12:45;;;;;;;1.65;1.20;;;15.90;99.90;;;;;;7393618;19;20686;-86
2023/09/27 00:15:12;;;;;;;2.08;1.30;;;15.80;99.90;;;;;;7393949;19;20466;-85
2023/09/27 00:17:39;;;;;;;2.30;1.23;;;15.90;99.90;;;;;;7393596;19;20256;-88
2023/09/27 00:20:27;;;;;;;1.70;1.27;;;15.80;99.90;;;;;;7393731;19;20738;-86
2023/09/27 00:22:54;;;;;;;1.58;1.15;;;15.80;99.90;;;;;;7392076;19;20180;-87
2023/09/27 00:25:20;;;;;;;1.00;0.90;;;15.80;99.90;;;;;;7392390;19;20147;-86
2023/09/27 00:27:46;;;;;;;1.02;0.93;;;16.10;99.90;;;;;;7395330;19;20145;-86
2023/09/27 00:30:15;;;;;;;1.25;1.05;;;16.20;99.90;;;;;;7390257;19;20175;-87
2023/09/27 00:32:42;;;;;;;1.00;0.90;;;16.20;99.90;;;;;;7393886;19;20143;-85
2023/09/27 00:35:14;;;;;;;1.15;1.00;;;16.20;99.90;;;;;;7392159;19;20167;-85
2023/09/27 00:37:40;;;;;;;0.82;0.82;;;16.40;99.90;;;;;;7392197;19;20139;-86
2023/09/27 00:40:10;;;;;;;1.83;1.00;;;16.50;99.90;;;;;;7392203;19;20509;-85
2023/09/27 00:42:37;;;;;;;1.25;0.90;;;16.60;99.90;;;;;;7394667;19;20538;-84
2023/09/27 00:45:03;;;;;;;1.38;1.00;;;16.70;99.90;;;;;;7392464;19;20154;-85
2023/09/27 00:47:30;;;;;;;1.90;1.27;;;16.70;99.90;;;;;;7391727;19;20627;-86
2023/09/27 00:49:56;;;;;;;1.80;1.08;;;16.30;99.90;;;;;;7389782;19;20138;-87
2023/09/27 00:52:22;;;;;;;1.10;1.00;;;16.40;99.90;;;;;;7392496;19;20145;-86
2023/09/27 00:54:49;;;;;;;1.58;1.23;;;16.50;99.90;;;;;;7391580;19;20150;-84
2023/09/27 00:57:15;;;;;;;0.90;0.80;;;16.40;99.90;;;;;;7391810;19;20139;-85
2023/09/27 00:59:42;;;;;;;1.17;1.08;;;16.50;99.90;;;;;;7391161;19;20489;-86
2023/09/27 01:02:09;;;;;;;1.20;1.10;;;16.50;99.90;;;;;;7389792;19;20176;-86
2023/09/27 01:04:34;;;;;;;1.10;1.00;;;16.60;99.90;;;;;;7389941;19;20159;-85
2023/09/27 01:07:00;;;;;;;1.42;1.30;;;16.60;99.90;;;;;;7389866;19;20146;-86
2023/09/27 01:09:26;;;;;;;0.73;0.73;;;16.60;99.90;;;;;;7389087;19;20168;-85
2023/09/27 01:11:52;;;;;;;1.35;1.10;;;16.40;99.90;;;;;;7392746;19;20131;-85
2023/09/27 01:14:18;;;;;;;1.98;1.25;;;16.00;99.90;;;;;;7389340;19;20482;-86
2023/09/27 01:16:44;;;;;;;1.13;1.00;;;15.50;99.90;;;;;;7391981;19;20156;-87
2023/09/27 01:19:09;;;;;;;1.10;1.00;;;15.50;99.90;;;;;;7396717;19;20145;-86
2023/09/27 01:21:35;;;;;;;1.00;0.95;;;15.60;99.90;;;;;;7398661;19;20149;-86
2023/09/27 01:24:01;;;;;;;1.30;1.20;;;15.70;99.90;;;;;;7396640;19;20602;-86
2023/09/27 01:26:28;;;;;;;1.17;1.08;;;15.70;99.90;;;;;;7398293;19;20138;-86
2023/09/27 01:28:54;;;;;;;1.25;1.10;;;15.70;99.90;;;;;;7397574;19;20202;-87
2023/09/27 01:31:20;;;;;;;1.80;1.20;;;15.80;99.90;;;;;;7398283;19;20501;-87
2023/09/27 01:33:46;;;;;;;1.25;1.15;;;15.90;99.90;;;;;;7398672;19;20153;-86
2023/09/27 01:36:12;;;;;;;1.63;1.08;;;16.00;99.90;;;;;;7398549;19;20138;-86
2023/09/27 01:38:38;;;;;;;2.75;1.10;;;16.20;99.90;;;;;;7397668;19;20127;-86
2023/09/27 01:41:04;;;;;;;1.25;1.10;;;16.40;99.90;;;;;;7398216;19;20135;-85
2023/09/27 01:43:31;;;;;;;1.25;1.15;;;16.30;99.90;;;;;;7396969;19;20165;-85
2023/09/27 01:45:56;;;;;;;2.13;0.95;;;16.40;99.90;;;;;;7394092;19;20150;-84
2023/09/27 01:48:22;;;;;;;1.17;1.00;;;16.10;99.90;;;;;;7398392;19;20465;-86
2023/09/27 01:50:48;;;;;;;1.35;1.25;;;15.90;99.90;;;;;;7397319;19;20144;-85
2023/09/27 01:53:15;;;;;;;1.15;1.05;;;15.90;99.90;;;;;;7397283;19;20135;-86
2023/09/27 01:55:41;;;;;;;1.10;1.00;;;15.90;99.90;;;;;;7397836;19;20151;-85
2023/09/27 01:58:07;;;;;;;1.42;1.15;;;15.80;99.90;;;;;;7396983;19;20127;-84
2023/09/27 02:00:32;;;;;;;1.40;0.90;;;15.60;99.90;;;;;;7398676;19;20135;-87
2023/09/27 02:03:00;;;;;;;1.45;1.10;;;15.60;99.90;;;;;;7398544;19;20142;-86
2023/09/27 02:05:29;;;;;;;1.00;0.90;;;15.50;99.90;;;;;;7394901;19;20143;-85
2023/09/27 02:07:55;;;;;;;1.60;1.20;;;15.70;99.90;;;;;;7399238;19;20229;-85
2023/09/27 02:10:21;;;;;;;1.75;1.00;;;15.40;99.90;;;;;;7393262;19;20138;-83
2023/09/27 02:12:47;;;;;;;0.80;0.80;;;15.30;99.90;;;;;;7399465;19;20130;-84
2023/09/27 02:15:14;;;;;;;1.10;0.90;;;15.10;99.90;;;;;;7396559;19;20138;-84
2023/09/27 02:17:40;;;;;;;1.17;1.08;;;15.00;99.90;;;;;;7398203;19;20144;-85
2023/09/27 02:20:07;;;;;;;1.75;1.38;;;14.80;99.90;;;;;;7396873;19;20615;-86
2023/09/27 02:22:42;;;;;;;0.70;0.70;;;15.00;99.90;;;;;;7395039;19;20141;-87
2023/09/27 02:25:09;;;;;;;0.95;0.95;;;15.10;99.90;;;;;;7395170;19;20130;-85
2023/09/27 02:27:39;;;;;;;1.40;1.08;;;15.10;99.90;;;;;;7394894;19;20147;-86
2023/09/27 02:30:07;;;;;;;0.95;0.93;;;15.10;99.90;;;;;;7391907;19;20555;-86
2023/09/27 02:32:33;;;;;;;0.93;0.90;;;15.00;99.90;;;;;;7394667;19;20169;-85
2023/09/27 02:35:00;;;;;;;1.40;1.30;;;15.00;99.90;;;;;;7397372;19;20131;-87
2023/09/27 02:37:26;;;;;;;0.90;0.90;;;15.30;99.90;;;;;;7395336;19;20145;-86
2023/09/27 02:39:51;;;;;;;1.98;1.30;;;15.30;99.90;;;;;;7394229;19;20587;-85
2023/09/27 02:42:17;;;;;;;1.50;1.20;;;15.00;99.90;;;;;;7395063;19;20598;-86
2023/09/27 02:44:43;;;;;;;1.02;0.93;;;14.80;99.90;;;;;;7394759;19;20138;-86
2023/09/27 02:47:09;;;;;;;1.00;0.90;;;14.60;99.90;;;;;;7398096;19;20487;-86
2023/09/27 02:49:35;;;;;;;1.70;1.27;;;14.70;99.90;;;;;;7393842;19;20138;-86
2023/09/27 02:52:01;;;;;;;1.02;0.93;;;14.70;99.90;;;;;;7398115;19;20526;-86
2023/09/27 02:54:29;;;;;;;1.20;1.02;;;14.80;99.90;;;;;;7392294;19;20143;-85
2023/09/27 02:56:55;;;;;;;1.15;1.05;;;15.20;99.90;;;;;;7395040;19;20127;-85
2023/09/27 02:59:21;;;;;;;1.27;1.15;;;15.20;99.90;;;;;;7394613;19;20606;-86
2023/09/27 03:01:47;;;;;;;1.75;1.20;;;15.40;99.90;;;;;;7395102;19;20167;-86
2023/09/27 03:04:15;;;;;;;1.17;1.00;;;15.60;99.90;;;;;;7393321;19;20131;-86
2023/09/27 03:06:41;;;;;;;2.38;1.52;;;15.80;99.90;;;;;;7391524;19;20673;-86
2023/09/27 03:09:08;;;;;;;1.00;0.95;;;15.20;99.90;;;;;;7394770;19;20157;-87
2023/09/27 03:11:39;;;;;;;0.80;0.80;;;15.00;99.90;;;;;;7396503;19;20148;-87
2023/09/27 03:14:05;;;;;;;0.95;0.80;;;15.20;99.90;;;;;;7393862;19;20206;-87
2023/09/27 03:16:31;;;;;;;0.93;0.93;;;15.20;99.90;;;;;;7394644;19;20123;-85
2023/09/27 03:18:59;;;;;;;1.15;1.00;;;14.80;99.90;;;;;;7396432;19;20126;-86
2023/09/27 03:21:26;;;;;;;0.70;0.60;;;14.90;99.90;;;;;;7394288;19;20420;-86
2023/09/27 03:23:53;;;;;;;0.80;0.80;;;15.10;99.90;;;;;;7394663;19;20146;-86
2023/09/27 03:26:22;;;;;;;1.90;1.20;;;15.40;99.90;;;;;;7394216;19;20217;-86
2023/09/27 03:28:50;;;;;;;0.88;0.80;;;15.30;99.90;;;;;;7393609;19;20231;-86
2023/09/27 03:31:17;;;;;;;1.52;1.30;;;15.10;99.90;;;;;;7396293;19;20123;-86
2023/09/27 03:33:42;;;;;;;1.25;1.08;;;15.10;99.90;;;;;;7393962;19;20131;-86
2023/09/27 03:36:08;;;;;;;1.27;1.17;;;15.10;99.90;;;;;;7394093;19;20876;-85
2023/09/27 03:38:34;;;;;;;1.90;1.40;;;15.10;99.90;;;;;;7393911;19;20142;-85
2023/09/27 03:41:00;;;;;;;1.10;1.00;;;14.70;99.90;;;;;;7393501;19;20142;-85
2023/09/27 03:43:25;;;;;;;1.95;1.23;;;14.70;99.90;;;;;;7394259;19;20134;-86
2023/09/27 03:45:52;;;;;;;1.38;0.80;;;15.00;99.90;;;;;;7393066;19;20141;-86
2023/09/27 03:48:19;;;;;;;1.25;1.15;;;15.20;99.90;;;;;;7393782;19;20131;-85
2023/09/27 03:50:45;;;;;;;0.93;0.90;;;14.70;99.90;;;;;;7393493;19;20143;-86
2023/09/27 03:53:11;;;;;;;1.33;1.17;;;14.90;99.90;;;;;;7395620;19;20599;-86
2023/09/27 03:55:37;;;;;;;1.50;1.38;;;14.70;99.90;;;;;;7394552;19;20142;-85
2023/09/27 03:58:03;;;;;;;1.35;1.05;;;14.60;99.90;;;;;;7394263;19;20139;-87
2023/09/27 04:00:29;;;;;;;2.10;1.30;;;14.70;99.90;;;;;;7394544;19;20207;-85
2023/09/27 04:02:55;;;;;;;1.80;1.00;;;14.70;99.90;;;;;;7392949;19;20158;-85
2023/09/27 04:05:26;;;;;;;1.40;1.30;;;14.60;99.90;;;;;;7393488;19;20149;-86
2023/09/27 04:07:52;;;;;;;1.05;0.95;;;14.60;99.90;;;;;;7392930;19;20130;-86
2023/09/27 04:10:19;;;;;;;1.60;1.42;;;14.60;99.90;;;;;;7390718;19;20198;-86
2023/09/27 04:12:45;;;;;;;1.95;1.40;;;14.60;99.90;;;;;;7392857;19;20158;-85
2023/09/27 04:15:12;;;;;;;1.67;1.35;;;14.50;99.90;;;;;;7393311;19;20149;-86
2023/09/27 04:17:38;;;;;;;1.73;1.10;;;14.80;99.90;;;;;;7392647;19;20142;-87
2023/09/27 04:20:13;;;;;;;1.40;1.30;;;14.80;99.90;;;;;;7395208;19;20126;-87
2023/09/27 04:22:42;;;;;;;1.77;1.40;;;14.90;99.90;;;;;;7394783;19;20855;-86
2023/09/27 04:25:08;;;;;;;1.35;1.20;;;15.10;99.90;;;;;;7394206;19;20159;-86
2023/09/27 04:27:34;;;;;;;1.58;1.35;;;14.90;99.90;;;;;;7391695;19;20126;-85
2023/09/27 04:30:00;;;;;;;1.45;1.20;;;14.90;99.90;;;;;;7389872;19;20142;-86
2023/09/27 04:32:26;;;;;;;1.75;1.35;;;15.10;99.90;;;;;;7392103;19;20122;-87
2023/09/27 04:34:51;;;;;;;1.70;1.30;;;15.00;99.90;;;;;;7392461;19;20599;-87
2023/09/27 04:37:17;;;;;;;1.70;1.40;;;14.60;99.90;;;;;;7392391;19;20134;-86
2023/09/27 04:39:43;;;;;;;1.75;1.20;;;14.40;99.90;;;;;;7391389;19;20135;-84
2023/09/27 04:42:09;;;;;;;1.38;1.10;;;14.40;99.90;;;;;;7392104;19;20127;-85
2023/09/27 04:44:34;;;;;;;1.27;1.10;;;14.60;99.90;;;;;;7394080;19;20135;-86
2023/09/27 04:47:00;;;;;;;1.67;1.38;;;14.50;99.90;;;;;;7390626;19;20142;-86
2023/09/27 04:49:27;;;;;;;2.10;1.00;;;14.60;99.90;;;;;;7390896;19;20138;-86
2023/09/27 04:51:52;;;;;;;1.48;1.10;;;14.80;99.90;;;;;;7392989;19;20138;-86
2023/09/27 04:54:18;;;;;;;1.70;1.30;;;15.10;99.90;;;;;;7401685;19;20143;-85
2023/09/27 04:56:44;;;;;;;2.45;1.23;;;15.10;99.90;;;;;;7398188;19;20493;-84
2023/09/27 04:59:10;;;;;;;2.15;1.67;;;15.40;99.90;;;;;;7400504;19;20455;-85
2023/09/27 05:01:36;;;;;;;1.27;1.17;;;15.40;99.90;;;;;;7397492;19;20160;-84
2023/09/27 05:04:02;;;;;;;1.98;1.23;;;15.50;99.90;;;;;;7396168;19;20499;-84
2023/09/27 05:06:28;;;;;;;1.52;1.25;;;15.50;99.90;;;;;;7396136;19;20207;-85
2023/09/27 05:08:54;;;;;;;1.70;1.60;;;15.50;99.90;;;;;;7398780;19;20127;-86
2023/09/27 05:11:20;;;;;;;1.02;0.93;;;15.50;99.90;;;;;;7398193;19;20468;-84
2023/09/27 05:13:50;;;;;;;1.77;1.42;;;15.50;99.90;;;;;;7400484;19;20151;-85
2023/09/27 05:16:16;;;;;;;1.77;1.27;;;15.40;99.90;;;;;;7400565;19;20153;-85
2023/09/27 05:18:42;;;;;;;1.50;1.40;;;15.30;99.90;;;;;;7398738;19;20541;-85
2023/09/27 05:21:09;;;;;;;2.22;1.83;;;15.30;99.90;;;;;;7398836;19;20135;-87
2023/09/27 05:23:34;;;;;;;1.50;1.13;;;15.40;99.90;;;;;;7399016;19;20461;-86
2023/09/27 05:26:00;;;;;;;1.75;1.40;;;15.50;99.90;;;;;;7400231;19;20131;-85
2023/09/27 05:28:28;;;;;;;1.50;1.40;;;15.50;99.90;;;;;;7397979;19;20141;-86
2023/09/27 05:30:54;;;;;;;1.63;1.20;;;15.40;99.90;;;;;;7398401;19;20603;-86
2023/09/27 05:33:19;;;;;;;1.10;1.00;;;15.50;99.90;;;;;;7398939;19;20134;-86
2023/09/27 05:35:50;;;;;;;1.95;1.33;;;15.50;99.90;;;;;;7399724;19;20206;-85
2023/09/27 05:38:16;;;;;;;1.25;1.15;;;15.50;99.90;;;;;;7402129;19;20134;-86
2023/09/27 05:40:42;;;;;;;2.15;1.25;;;15.50;99.90;;;;;;7400728;19;20127;-87
2023/09/27 05:43:08;;;;;;;1.63;1.50;;;15.50;99.90;;;;;;7400267;19;20150;-86
2023/09/27 05:45:34;;;;;;;1.60;1.13;;;15.50;99.90;;;;;;7399438;19;20134;-85
2023/09/27 05:48:00;;;;;;;2.65;1.10;;;15.50;99.90;;;;;;7398694;19;20127;-86
2023/09/27 05:50:26;;;;;;;2.92;1.52;;;15.70;99.90;;;;;;7397385;19;20585;-85
2023/09/27 05:52:52;;;;;;;1.95;1.60;;;15.20;99.90;;;;;;7400922;19;20214;-85
2023/09/27 05:55:18;;;;;;;1.48;1.38;;;15.10;99.90;;;;;;7400424;19;20129;-85
2023/09/27 05:57:44;;;;;;;1.40;1.30;;;15.30;99.90;;;;;;7399494;19;20648;-85
2023/09/27 06:03:09;;;;;;;1.35;1.25;;;15.30;99.90;;;;;;7395029;19;20190;-85
2023/09/27 06:05:34;;;;;;;1.40;1.25;;;15.00;99.90;;;;;;7396995;19;20187;-86
2023/09/27 06:08:03;;;;;;;2.20;1.60;;;14.70;99.90;;;;;;7402423;19;20220;-87
2023/09/27 06:10:29;;;;;;;1.33;1.23;;;14.60;99.90;;;;;;7397036;19;20141;-88
2023/09/27 06:12:55;;;;;;;1.50;1.35;;;14.30;99.90;;;;;;7399888;19;20146;-88
2023/09/27 06:15:20;;;;;;;1.75;1.40;;;14.30;99.90;;;;;;7396753;19;20238;-89
2023/09/27 06:17:48;;;;;;;2.28;1.40;;;14.20;99.90;;;;;;7401318;19;20162;-89
2023/09/27 06:20:21;;;;;;;2.75;1.58;;;14.20;99.90;;;;;;7398462;19;20139;-88
2023/09/27 06:22:52;;;;;;;2.80;1.90;;;14.20;99.90;;;;;;7398524;19;20157;-85
2023/09/27 06:25:19;;;;;;;5.40;3.28;;;14.00;99.90;;;;;;7398986;19;20143;-85
2023/09/27 06:27:45;;;;;;;2.35;1.70;;;14.10;99.90;;;;;;7397556;19;20154;-85
2023/09/27 06:30:12;;;;;;;2.92;2.00;;;14.50;99.90;;;;;;7396075;19;20663;-83
2023/09/27 06:32:38;;;;;;;8.48;6.13;;;14.60;99.90;;;;;;7401487;19;20138;-85
2023/09/27 06:35:12;;;;;;;2.65;2.35;;;14.50;99.90;;;;;;7401366;19;20615;-85
2023/09/27 06:37:43;;;;;;;1.80;1.70;;;14.70;99.90;;;;;;7396465;19;20579;-85
2023/09/27 06:40:16;;;;;;;1.58;1.45;;;14.60;99.90;;;;;;7397549;19;20131;-83
2023/09/27 06:42:42;;;;;;;2.78;2.20;;;14.60;99.90;;;;;;7397233;19;20143;-87
2023/09/27 06:45:10;;;;;;;2.78;2.08;;;14.30;99.90;;;;;;7395944;19;20127;-87
2023/09/27 06:47:38;;;;;;;3.25;1.45;;;14.40;99.90;;;;;;7398716;19;20130;-84
2023/09/27 06:50:04;;;;;;;3.28;2.47;;;14.60;99.90;;;;;;7394169;19;20130;-84
2023/09/27 06:52:30;;;;;;;2.38;1.80;;;14.20;99.90;;;;;;7396871;19;20142;-84
2023/09/27 06:54:57;;;;;;;2.63;1.85;;;14.20;99.90;;;;;;7398075;19;20150;-84
2023/09/27 06:57:23;;;;;;;2.08;1.85;;;14.20;99.90;;;;;;7397655;19;20138;-85
2023/09/27 06:59:49;;;;;;;3.42;2.03;;;14.40;99.90;;;;;;7397295;19;20148;-86
2023/09/27 07:02:16;;;;;;;2.92;1.50;;;14.40;99.90;;;;;;7397714;19;20210;-85
2023/09/27 07:04:42;;;;;;;2.13;1.60;;;14.50;99.90;;;;;;7395932;19;20218;-87
2023/09/27 07:07:09;;;;;;;2.85;1.67;;;14.70;99.90;;;;;;7398585;19;20963;-84
2023/09/27 07:09:35;;;;;;;1.92;1.63;;;14.70;99.90;;;;;;7400523;19;20225;-85
2023/09/27 07:12:00;;;;;;;3.25;1.60;;;14.80;99.90;;;;;;7397222;19;20483;-87
2023/09/27 07:14:29;;;;;;;3.13;1.85;;;15.00;99.90;;;;;;7394933;19;20396;-86
2023/09/27 07:16:55;;;;;;;3.63;1.80;;;15.30;99.90;;;;;;7393645;19;20387;-83
2023/09/27 07:19:21;;;;;;;5.60;2.08;;;15.40;99.90;;;;;;7396286;19;20292;-81
2023/09/27 07:21:47;;;;;;;3.25;2.10;;;15.50;99.90;;;;;;7395862;19;20150;-84
2023/09/27 07:24:13;;;;;;;2.58;1.95;;;15.80;99.90;;;;;;7399799;19;20158;-86
2023/09/27 07:26:41;;;;;;;1.90;1.52;;;15.90;99.90;;;;;;7401406;19;20219;-84
2023/09/27 07:29:07;;;;;;;2.50;1.67;;;16.00;99.90;;;;;;7400476;19;20162;-85
2023/09/27 07:31:33;;;;;;;2.60;1.70;;;16.00;99.90;;;;;;7397555;19;20130;-84
2023/09/27 07:34:05;;;;;;;2.17;1.83;;;16.00;99.90;;;;;;7397409;19;20487;-85
2023/09/27 07:36:31;;;;;;;1.98;1.63;;;16.00;99.90;;;;;;7397373;19;20127;-87
2023/09/27 07:38:59;;;;;;;2.38;1.77;;;16.00;99.90;;;;;;7398803;19;20469;-88
2023/09/27 07:41:25;;;;;;;4.25;1.90;;;16.00;99.90;;;;;;7395980;19;20151;-82
2023/09/27 07:43:51;;;;;;;1.77;1.42;;;16.10;99.90;;;;;;7395077;19;20226;-85
2023/09/27 07:46:18;;;;;;;2.00;1.50;;;16.20;99.90;;;;;;7395146;19;20155;-83
2023/09/27 07:48:44;;;;;;;3.97;2.47;;;16.30;99.90;;;;;;7392216;19;20651;-84
2023/09/27 07:51:18;;;;;;;3.05;1.88;;;16.20;99.90;;;;;;7396154;19;20134;-86
2023/09/27 07:53:44;;;;;;;2.13;1.40;;;16.20;99.90;;;;;;7395696;19;20135;-85
2023/09/27 07:56:22;;;;;;;2.33;1.67;;;16.20;99.90;;;;;;7396808;19;20134;-86
2023/09/27 07:58:51;;;;;;;4.00;2.25;;;16.30;99.90;;;;;;7396640;19;20156;-85
2023/09/27 08:01:20;;;;;;;2.10;1.67;;;16.30;99.90;;;;;;7398120;19;20572;-86
2023/09/27 08:03:53;;;;;;;2.10;1.90;;;16.40;99.90;;;;;;7395530;19;20306;-85
2023/09/27 08:06:20;;;;;;;2.55;1.80;;;16.40;99.90;;;;;;7392539;19;20273;-86
2023/09/27 08:08:47;;;;;;;3.00;2.15;;;16.50;99.90;;;;;;7397897;19;20135;-89
2023/09/27 08:11:13;;;;;;;3.47;2.22;;;16.30;99.90;;;;;;7395508;19;20150;-85
2023/09/27 08:13:40;;;;;;;2.40;1.58;;;16.40;99.90;;;;;;7394574;19;20151;-85
2023/09/27 08:16:07;;;;;;;2.42;1.60;;;16.90;99.90;;;;;;7395775;19;20470;-86
2023/09/27 08:18:34;;;;;;;1.42;1.33;;;16.60;99.90;;;;;;7393649;19;20201;-85
2023/09/27 08:21:00;;;;;;;1.80;1.35;;;16.70;99.90;;;;;;7395030;19;20134;-85
2023/09/27 08:23:26;;;;;;;2.55;1.48;;;16.80;99.90;;;;;;7396022;19;20143;-88
2023/09/27 08:25:53;;;;;;;1.75;1.40;;;16.80;99.90;;;;;;7397005;19;20142;-85
2023/09/27 08:28:21;;;;;;;1.50;1.38;;;16.90;99.90;;;;;;7392146;19;20151;-87
2023/09/27 08:30:47;;;;;;;1.52;1.42;;;16.90;99.90;;;;;;7391438;19;20163;-88
2023/09/27 08:33:13;;;;;;;1.73;1.45;;;17.10;99.90;;;;;;7394415;19;20146;-89
2023/09/27 08:35:40;;;;;;;3.35;2.25;;;17.30;99.90;;;;;;7395797;19;20130;-86
2023/09/27 08:38:06;;;;;;;1.70;1.60;;;17.30;99.90;;;;;;7394175;19;20150;-86
2023/09/27 08:40:32;;;;;;;2.00;1.50;;;17.50;99.90;;;;;;7394247;19;20184;-86
2023/09/27 08:43:00;;;;;;;1.70;1.60;;;17.60;99.90;;;;;;7395629;19;20146;-89
2023/09/27 08:45:27;;;;;;;3.55;1.73;;;17.70;99.90;;;;;;7395023;19;20139;-86
2023/09/27 08:47:54;;;;;;;2.40;1.48;;;18.00;99.90;;;;;;7395983;19;20486;-85
2023/09/27 08:50:20;;;;;;;2.58;1.63;;;18.20;99.90;;;;;;7390407;19;20131;-85
2023/09/27 08:52:50;;;;;;;1.30;1.20;;;18.40;99.90;;;;;;7394384;19;20151;-86
2023/09/27 08:55:17;;;;;;;2.53;1.73;;;18.60;99.90;;;;;;7394384;19;20194;-86
2023/09/27 08:57:55;;;;;;;1.92;1.35;;;18.70;99.90;;;;;;7396319;19;20139;-91
2023/09/27 09:00:26;;;;;;;2.38;1.42;;;18.80;99.90;;;;;;7394994;19;20130;-89
2023/09/27 09:02:57;;;;;;;1.35;1.25;;;18.90;99.90;;;;;;7393468;19;20157;-89
2023/09/27 09:05:24;;;;;;;1.88;1.40;;;19.00;99.90;;;;;;7396169;19;20154;-87
2023/09/27 09:07:53;;;;;;;1.42;1.30;;;19.10;99.90;;;;;;7398306;19;20156;-84
2023/09/27 09:10:19;;;;;;;2.75;1.35;;;19.20;99.90;;;;;;7393465;19;20162;-90
2023/09/27 09:12:47;;;;;;;2.13;1.60;;;19.30;99.90;;;;;;7396377;19;20155;-92
2023/09/27 09:15:40;;;;;;;2.00;1.55;;;19.30;99.90;;;;;;7402499;19;20556;-91
2023/09/27 09:18:10;;;;;;;1.80;1.40;;;19.50;99.90;;;;;;7394461;19;20134;-92
2023/09/27 09:20:49;;;;;;;1.50;1.33;;;19.60;99.90;;;;;;7397051;19;20470;-94
2023/09/27 09:23:38;;;;;;;1.30;1.10;;;19.70;99.90;;;;;;7397615;19;20146;-90
2023/09/27 09:26:11;;;;;;;1.05;0.95;;;19.70;99.90;;;;;;7394821;19;20143;-87
2023/09/27 09:28:56;;;;;;;2.03;1.52;;;19.80;99.90;;;;;;7397041;19;20139;-94
2023/09/27 09:31:26;;;;;;;1.63;1.30;;;19.90;99.90;;;;;;7404444;19;20146;-95
2023/09/27 09:34:11;;;;;;;1.35;1.25;;;20.00;99.90;;;;;;7399572;19;20149;-89
2023/09/27 09:36:37;;;;;;;1.48;1.23;;;20.10;99.90;;;;;;7398387;19;20210;-89
2023/09/27 09:39:14;;;;;;;2.53;2.05;;;20.10;99.90;;;;;;7397955;19;20155;-89
2023/09/27 09:41:44;;;;;;;1.98;1.60;;;20.20;99.90;;;;;;7403413;19;20141;-90
2023/09/27 09:44:23;;;;;;;2.95;1.83;;;20.30;99.90;;;;;;7407087;19;20134;-84
2023/09/27 09:46:51;;;;;;;1.60;1.38;;;20.40;99.90;;;;;;7400418;19;20158;-83
2023/09/27 09:49:18;;;;;;;2.85;1.40;;;20.40;99.90;;;;;;7394664;19;20157;-82
2023/09/27 09:51:48;;;;;;;1.50;1.08;;;20.40;99.90;;;;;;7394944;19;20680;-81
2023/09/27 09:54:48;;;;;;;1.67;1.08;;;20.50;99.90;;;;;;7396509;19;20732;-80
2023/09/27 09:57:14;;;;;;;1.60;1.00;;;20.50;99.90;;;;;;7397080;19;20146;-82
2023/09/27 10:00:16;;;;;;;1.85;1.30;;;20.60;99.90;;;;;;7398377;19;20460;-79
2023/09/27 10:02:51;;;;;;;1.10;0.88;;;20.70;99.90;;;;;;7395858;19;20626;-81
2023/09/27 10:05:19;;;;;;;1.52;1.33;;;20.80;99.90;;;;;;7398069;19;20150;-81
2023/09/27 10:07:46;;;;;;;1.70;1.10;;;20.80;99.90;;;;;;7396608;19;20135;-79
2023/09/27 10:10:13;;;;;;;1.42;1.02;;;21.00;99.90;;;;;;7395825;19;20142;-81
2023/09/27 10:12:42;;;;;;;1.30;1.10;;;21.00;99.90;;;;;;7399775;19;20146;-81
2023/09/27 10:15:08;;;;;;;1.20;0.98;;;21.10;99.90;;;;;;7398034;19;20146;-81
2023/09/27 10:17:34;;;;;;;1.23;1.00;;;21.20;99.90;;;;;;7396014;19;20554;-81
2023/09/27 10:20:12;;;;;;;0.70;0.70;;;21.30;99.90;;;;;;7394545;19;20614;-81
2023/09/27 10:22:40;;;;;;;1.27;1.17;;;21.40;99.90;;;;;;7395944;19;20131;-84
2023/09/27 10:25:26;;;;;;;2.33;1.60;;;21.40;99.90;;;;;;7396107;19;20153;-83
2023/09/27 10:28:01;;;;;;;1.63;1.05;;;21.50;99.90;;;;;;7396070;19;20620;-81
2023/09/27 10:30:48;;;;;;;1.50;1.10;;;21.60;99.90;;;;;;7394345;19;20193;-81
2023/09/27 10:33:16;;;;;;;1.23;1.05;;;21.60;99.90;;;;;;7395419;19;20138;-83
2023/09/27 10:35:45;;;;;;;1.83;1.00;;;21.60;99.90;;;;;;7397446;19;20135;-84
2023/09/27 10:38:12;;;;;;;1.20;1.10;;;21.70;99.90;;;;;;7399063;19;20875;-85
2023/09/27 10:40:45;;;;;;;1.25;1.10;;;21.70;99.90;;;;;;7399086;19;20610;-83
2023/09/27 10:43:32;;;;;;;2.00;1.10;;;21.70;99.90;;;;;;7397441;19;20138;-80
2023/09/27 10:45:59;;;;;;;1.05;0.85;;;21.80;99.90;;;;;;7399171;19;20126;-80
2023/09/27 10:48:25;;;;;;;2.20;1.33;;;21.90;99.90;;;;;;7395115;19;20146;-79
2023/09/27 10:50:57;;;;;;;1.30;1.20;;;21.90;99.90;;;;;;7388958;19;20130;-81
2023/09/27 10:53:23;;;;;;;1.33;0.95;;;22.20;99.90;;;;;;7396925;19;20134;-78
2023/09/27 10:55:49;;;;;;;1.38;1.23;;;22.20;99.90;;;;;;7395132;19;20130;-78
2023/09/27 10:58:16;;;;;;;2.58;1.20;;;22.30;99.90;;;;;;7394100;19;20138;-78
2023/09/27 11:00:55;;;;;;;1.05;0.90;;;22.40;99.90;;;;;;7395569;19;20127;-77
2023/09/27 11:03:23;;;;;;;0.88;0.82;;;22.40;99.90;;;;;;7394002;19;20278;-77
2023/09/27 11:05:50;;;;;;;1.65;1.38;;;22.40;99.90;;;;;;7391710;19;20150;-79
2023/09/27 11:08:25;;;;;;;1.27;1.00;;;22.50;99.90;;;;;;7395634;19;20702;-78
2023/09/27 11:10:52;;;;;;;1.27;1.15;;;22.60;99.90;;;;;;7389589;19;20160;-79
2023/09/27 11:13:19;;;;;;;1.60;1.20;;;22.60;99.90;;;;;;7392524;19;20565;-78
2023/09/27 11:15:45;;;;;;;1.52;1.13;;;22.60;99.90;;;;;;7392352;19;20157;-79
2023/09/27 11:18:11;;;;;;;1.70;0.98;;;22.60;99.90;;;;;;7391771;19;20495;-80
2023/09/27 11:20:39;;;;;;;0.98;0.90;;;22.60;99.90;;;;;;7393761;19;20893;-80
2023/09/27 11:23:05;;;;;;;1.35;0.85;;;22.60;99.90;;;;;;7394848;19;20135;-83
2023/09/27 11:25:37;;;;;;;1.23;1.00;;;22.60;99.90;;;;;;7393666;19;20142;-81
2023/09/27 11:28:04;;;;;;;1.10;1.00;;;22.80;99.90;;;;;;7395950;19;20126;-81
2023/09/27 11:30:31;;;;;;;1.45;1.25;;;22.80;99.90;;;;;;7390938;19;20123;-78
2023/09/27 11:32:59;;;;;;;1.00;0.60;;;22.90;99.90;;;;;;7393317;19;20944;-80
2023/09/27 11:35:26;;;;;;;1.08;0.80;;;22.90;99.90;;;;;;7395607;19;20147;-80
2023/09/27 11:38:07;;;;;;;1.05;0.82;;;23.00;99.90;;;;;;7393075;19;20162;-81
2023/09/27 11:40:34;;;;;;;0.90;0.88;;;23.00;99.90;;;;;;7403872;19;20131;-80
2023/09/27 11:43:01;;;;;;;1.88;0.70;;;23.10;99.90;;;;;;7396702;19;20135;-79
2023/09/27 11:45:27;;;;;;;1.70;1.00;;;23.10;99.90;;;;;;7393784;19;20465;-81
2023/09/27 11:47:52;;;;;;;1.15;0.70;;;23.20;99.90;;;;;;7393971;19;20145;-82
2023/09/27 11:50:19;;;;;;;0.95;0.70;;;23.30;99.90;;;;;;7390554;19;20165;-82
2023/09/27 11:52:46;;;;;;;0.98;0.80;;;23.40;99.90;;;;;;7393321;19;20134;-82
2023/09/27 11:55:13;;;;;;;1.38;1.20;;;23.50;99.90;;;;;;7393873;19;20134;-87
2023/09/27 11:57:40;;;;;;;0.80;0.70;;;23.60;99.90;;;;;;7394551;19;20627;-90
2023/09/27 12:00:08;;;;;;;0.90;0.88;;;23.60;99.90;;;;;;7397941;19;20130;-88
2023/09/27 12:02:33;;;;;;;0.63;0.63;;;23.70;99.90;;;;;;7394383;19;20226;-87
2023/09/27 12:05:04;;;;;;;2.05;1.08;;;23.80;99.90;;;;;;7393113;19;20170;-87
2023/09/27 12:07:31;;;;;;;1.40;1.00;;;24.00;99.90;;;;;;7393443;19;20631;-87
2023/09/27 12:09:58;;;;;;;1.80;1.20;;;24.10;99.90;;;;;;7391190;19;20134;-85
2023/09/27 12:12:23;;;;;;;0.85;0.60;;;24.20;99.90;;;;;;7394929;19;20482;-88
2023/09/27 12:14:49;;;;;;;0.75;0.52;;;24.00;99.90;;;;;;7393248;19;20260;-86
2023/09/27 12:17:16;;;;;;;1.48;0.98;;;24.00;99.90;;;;;;7393483;19;20168;-85
2023/09/27 12:19:45;;;;;;;1.00;0.80;;;24.10;99.90;;;;;;7393781;19;20122;-84
2023/09/27 12:22:14;;;;;;;1.35;0.75;;;24.20;99.90;;;;;;7393535;19;20256;-86
2023/09/27 12:24:41;;;;;;;1.33;0.82;;;24.10;99.90;;;;;;7393216;19;20776;-84
2023/09/27 12:27:07;;;;;;;1.35;1.08;;;24.00;99.90;;;;;;7394704;19;20153;-91
2023/09/27 12:29:33;;;;;;;0.55;0.55;;;24.10;99.90;;;;;;7396081;19;20159;-93
2023/09/27 12:32:02;;;;;;;0.65;0.65;;;24.20;99.90;;;;;;7394242;19;20485;-90
2023/09/27 12:34:29;;;;;;;1.00;0.90;;;24.30;99.90;;;;;;7392212;19;20206;-87
2023/09/27 12:36:55;;;;;;;0.70;0.70;;;24.10;99.90;;;;;;7395616;19;20139;-89
2023/09/27 12:39:21;;;;;;;0.80;0.75;;;24.20;99.90;;;;;;7396109;19;20563;-87
2023/09/27 12:41:47;;;;;;;1.70;1.02;;;24.20;99.90;;;;;;7394658;19;20145;-89
2023/09/27 12:44:12;;;;;;;0.88;0.63;;;24.20;99.90;;;;;;7397373;19;20161;-89
2023/09/27 12:46:39;;;;;;;0.70;0.70;;;24.10;99.90;;;;;;7393474;19;20146;-89
2023/09/27 12:49:05;;;;;;;1.52;0.90;;;24.20;99.90;;;;;;7393535;19;20620;-87
2023/09/27 12:51:33;;;;;;;1.65;1.15;;;24.40;99.90;;;;;;7394747;19;20134;-89
2023/09/27 12:53:59;;;;;;;0.57;0.57;;;24.50;99.90;;;;;;7396958;19;20209;-90